createdAt,value
2023-05-05T00:03:18.133Z,23.0
2023-05-05T00:10:50.635Z,23.0
2023-05-05T00:18:23.068Z,23.0
2023-05-05T00:25:55.485Z,23.0
2023-05-05T00:33:27.932Z,23.0
2023-05-05T00:41:00.372Z,23.0
2023-05-05T00:48:32.784Z,23.0
2023-05-05T00:56:05.237Z,23.0
2023-05-05T01:03:37.747Z,23.0
2023-05-05T01:11:10.202Z,23.0
2023-05-05T01:18:42.617Z,23.0
2023-05-05T01:26:15.062Z,23.0
2023-05-05T01:33:47.478Z,23.0
2023-05-05T01:41:19.878Z,23.0
2023-05-05T01:48:52.315Z,23.0
2023-05-05T01:56:24.720Z,23.0
2023-05-05T02:03:59.852Z,23.0
2023-05-05T02:11:32.252Z,23.1
2023-05-05T02:19:04.676Z,23.0
2023-05-05T02:26:37.118Z,23.0
2023-05-05T02:34:09.553Z,23.0
2023-05-05T02:41:41.976Z,23.0
2023-05-05T02:49:14.413Z,23.0
2023-05-05T02:56:46.809Z,23.0
2023-05-05T03:04:19.226Z,23.0
2023-05-05T03:11:51.650Z,23.0
2023-05-05T03:19:24.079Z,23.0
2023-05-05T03:26:56.503Z,23.0
2023-05-05T03:34:28.952Z,23.0
2023-05-05T03:42:01.374Z,23.0
2023-05-05T03:46:33.803Z,23.0
2023-05-05T03:47:21.213Z,23.1
2023-05-05T03:48:08.670Z,23.1
2023-05-05T03:48:56.088Z,23.1
2023-05-05T03:49:43.488Z,23.1
2023-05-05T03:50:30.913Z,23.1
2023-05-05T03:51:18.379Z,23.1
2023-05-05T03:52:05.799Z,23.0
2023-05-05T03:52:53.219Z,23.0
2023-05-05T03:53:40.814Z,23.0
2023-05-05T03:54:28.339Z,23.0
2023-05-05T03:55:15.781Z,23.0
2023-05-05T03:56:03.217Z,22.9
2023-05-05T03:56:50.808Z,22.8
2023-05-05T03:57:38.228Z,22.8
2023-05-05T03:58:25.653Z,22.8
2023-05-05T03:59:13.388Z,22.7
2023-05-05T04:00:01.009Z,22.6
2023-05-05T04:00:48.456Z,22.6
2023-05-05T04:01:35.926Z,22.6
2023-05-05T04:02:23.381Z,22.5
2023-05-05T04:03:11.133Z,22.5
2023-05-05T04:03:58.721Z,22.5
2023-05-05T04:04:46.148Z,22.4
2023-05-05T04:05:33.587Z,22.4
2023-05-05T04:06:21.225Z,22.4
2023-05-05T04:07:08.883Z,22.4
2023-05-05T04:07:56.338Z,22.4
2023-05-05T04:08:43.763Z,22.3
2023-05-05T04:09:31.196Z,22.3
2023-05-05T04:10:18.636Z,22.3
2023-05-05T04:11:06.077Z,22.2
2023-05-05T04:11:53.507Z,22.2
2023-05-05T04:12:40.963Z,22.1
2023-05-05T04:13:28.402Z,22.1
2023-05-05T04:14:15.862Z,22.1
2023-05-05T04:15:03.304Z,22.0
2023-05-05T04:15:50.729Z,22.0
2023-05-05T04:16:38.156Z,22.0
2023-05-05T04:17:25.781Z,22.0
2023-05-05T04:18:13.275Z,22.0
2023-05-05T04:19:00.705Z,22.0
2023-05-05T04:19:48.146Z,22.0
2023-05-05T04:20:35.551Z,22.0
2023-05-05T04:21:22.952Z,22.0
2023-05-05T04:22:10.349Z,21.9
2023-05-05T04:22:57.762Z,22.0
2023-05-05T04:23:45.166Z,21.9
2023-05-05T04:24:32.628Z,22.0
2023-05-05T04:25:20.252Z,22.0
2023-05-05T04:26:07.701Z,22.0
2023-05-05T04:26:55.358Z,22.0
2023-05-05T04:27:42.774Z,22.0
2023-05-05T04:28:30.174Z,22.0
2023-05-05T04:29:17.755Z,22.0
2023-05-05T04:30:05.276Z,22.0
2023-05-05T04:30:52.869Z,22.0
2023-05-05T04:31:40.351Z,22.1
2023-05-05T04:32:27.822Z,22.1
2023-05-05T04:33:15.241Z,22.1
2023-05-05T04:34:02.668Z,22.1
2023-05-05T04:34:50.072Z,22.1
2023-05-05T04:35:37.499Z,22.1
2023-05-05T04:36:25.018Z,22.1
2023-05-05T04:37:12.627Z,22.1
2023-05-05T04:38:00.468Z,22.1
2023-05-05T04:38:48.101Z,22.1
2023-05-05T04:39:35.547Z,22.2
2023-05-05T04:40:22.985Z,22.1
2023-05-05T04:41:10.394Z,22.2
2023-05-05T04:41:57.825Z,22.2
2023-05-05T04:42:45.226Z,22.2
2023-05-05T04:43:32.742Z,22.2
2023-05-05T04:44:20.167Z,22.1
2023-05-05T04:45:07.664Z,22.1
2023-05-05T04:45:55.121Z,22.1
2023-05-05T04:46:42.566Z,22.1
2023-05-05T04:47:30.036Z,22.0
2023-05-05T04:48:17.467Z,22.0
2023-05-05T04:49:04.917Z,22.0
2023-05-05T04:49:52.360Z,21.9
2023-05-05T04:50:39.812Z,21.9
2023-05-05T04:51:27.230Z,21.9
2023-05-05T04:52:14.647Z,21.9
2023-05-05T04:53:02.067Z,21.8
2023-05-05T04:53:49.508Z,21.8
2023-05-05T04:54:36.925Z,21.8
2023-05-05T04:55:24.472Z,21.8
2023-05-05T04:56:11.893Z,21.8
2023-05-05T04:56:59.358Z,21.7
2023-05-05T04:57:46.794Z,21.7
2023-05-05T04:58:34.244Z,21.6
2023-05-05T04:59:21.670Z,21.6
2023-05-05T05:00:09.354Z,21.6
2023-05-05T05:00:56.875Z,21.6
2023-05-05T05:01:44.518Z,21.6
2023-05-05T05:02:32.184Z,21.5
2023-05-05T05:03:19.808Z,21.5
2023-05-05T05:04:07.322Z,21.5
2023-05-05T05:04:54.812Z,21.6
2023-05-05T05:05:42.385Z,21.6
2023-05-05T05:06:29.793Z,21.7
2023-05-05T05:07:17.196Z,21.7
2023-05-05T05:08:05.393Z,21.7
2023-05-05T05:08:52.822Z,21.8
2023-05-05T05:09:40.542Z,21.8
2023-05-05T05:10:28.271Z,21.8
2023-05-05T05:11:15.707Z,21.8
2023-05-05T05:12:03.108Z,21.9
2023-05-05T05:12:50.562Z,21.9
2023-05-05T05:13:38.065Z,21.9
2023-05-05T05:14:25.520Z,21.9
2023-05-05T05:15:12.948Z,21.9
2023-05-05T05:16:00.400Z,21.9
2023-05-05T05:16:47.905Z,21.9
2023-05-05T05:17:35.376Z,22.0
2023-05-05T05:18:22.819Z,22.0
2023-05-05T05:19:10.270Z,22.0
2023-05-05T05:19:59.529Z,22.0
2023-05-05T05:20:46.792Z,22.0
2023-05-05T05:21:34.308Z,22.0
2023-05-05T05:22:21.712Z,22.0
2023-05-05T05:23:09.204Z,22.0
2023-05-05T05:23:56.615Z,22.1
2023-05-05T05:24:44.024Z,22.1
2023-05-05T05:25:31.460Z,22.2
2023-05-05T05:26:18.894Z,22.2
2023-05-05T05:27:07.325Z,22.2
2023-05-05T05:28:08.992Z,22.2
2023-05-05T05:28:54.096Z,22.2
2023-05-05T05:29:41.498Z,22.2
2023-05-05T05:30:28.984Z,22.2
2023-05-05T05:31:16.835Z,22.2
2023-05-05T05:32:04.289Z,22.2
2023-05-05T05:32:51.882Z,22.2
2023-05-05T05:33:39.535Z,22.1
2023-05-05T05:34:26.952Z,22.1
2023-05-05T05:35:14.364Z,22.1
2023-05-05T05:36:01.764Z,22.1
2023-05-05T05:36:49.179Z,22.1
2023-05-05T05:37:36.587Z,22.0
2023-05-05T05:38:24.110Z,22.0
2023-05-05T05:39:11.556Z,22.0
2023-05-05T05:39:59.005Z,22.0
2023-05-05T05:40:46.454Z,22.0
2023-05-05T05:41:33.894Z,22.0
2023-05-05T05:42:21.337Z,21.9
2023-05-05T05:43:08.763Z,21.9
2023-05-05T05:43:56.189Z,21.9
2023-05-05T05:44:43.613Z,21.9
2023-05-05T05:45:31.023Z,21.9
2023-05-05T05:46:18.489Z,21.9
2023-05-05T05:47:05.950Z,21.9
2023-05-05T05:47:53.451Z,21.9
2023-05-05T05:48:40.885Z,21.9
2023-05-05T05:49:28.364Z,21.9
2023-05-05T05:50:15.794Z,21.8
2023-05-05T05:51:03.218Z,21.8
2023-05-05T05:51:50.638Z,21.8
2023-05-05T05:52:38.089Z,21.8
2023-05-05T05:53:25.547Z,21.8
2023-05-05T05:54:13.062Z,21.8
2023-05-05T05:55:00.628Z,21.7
2023-05-05T05:55:48.082Z,21.7
2023-05-05T05:56:35.533Z,21.7
2023-05-05T05:57:23.011Z,21.7
2023-05-05T05:58:10.439Z,21.7
2023-05-05T05:58:57.869Z,21.7
2023-05-05T05:59:45.292Z,21.6
2023-05-05T06:00:32.668Z,21.6
2023-05-05T06:01:20.427Z,21.6
2023-05-05T06:02:08.158Z,21.6
2023-05-05T06:02:55.767Z,21.6
2023-05-05T06:03:43.353Z,21.6
2023-05-05T06:04:30.941Z,21.7
2023-05-05T06:05:18.753Z,21.7
2023-05-05T06:06:06.175Z,21.7
2023-05-05T06:06:53.608Z,21.7
2023-05-05T06:07:41.049Z,21.8
2023-05-05T06:08:28.486Z,21.8
2023-05-05T06:09:15.919Z,21.9
2023-05-05T06:10:14.995Z,21.9
2023-05-05T06:11:01.165Z,22.0
2023-05-05T06:11:48.605Z,22.0
2023-05-05T06:12:36.110Z,22.0
2023-05-05T06:13:23.562Z,22.0
2023-05-05T06:14:11.006Z,22.1
2023-05-05T06:14:58.454Z,22.1
2023-05-05T06:15:45.957Z,22.2
2023-05-05T06:16:33.625Z,22.2
2023-05-05T06:17:21.310Z,22.2
2023-05-05T06:18:08.803Z,22.2
2023-05-05T06:18:56.389Z,22.3
2023-05-05T06:19:43.829Z,22.3
2023-05-05T06:20:31.806Z,22.3
2023-05-05T06:21:19.225Z,22.4
2023-05-05T06:22:06.639Z,22.4
2023-05-05T06:22:54.071Z,22.5
2023-05-05T06:23:41.551Z,22.5
2023-05-05T06:24:29.035Z,22.5
2023-05-05T06:25:16.471Z,22.5
2023-05-05T06:26:03.884Z,22.6
2023-05-05T06:26:51.299Z,22.6
2023-05-05T06:27:38.758Z,22.6
2023-05-05T06:28:26.383Z,22.6
2023-05-05T06:29:13.806Z,22.7
2023-05-05T06:30:01.264Z,22.7
2023-05-05T06:30:48.689Z,22.7
2023-05-05T06:31:36.161Z,22.7
2023-05-05T06:32:24.008Z,22.8
2023-05-05T06:33:11.441Z,22.7
2023-05-05T06:33:58.859Z,22.8
2023-05-05T06:34:46.297Z,22.8
2023-05-05T06:35:34.192Z,22.8
2023-05-05T06:36:21.628Z,22.8
2023-05-05T06:37:09.067Z,22.8
2023-05-05T06:37:56.501Z,22.9
2023-05-05T06:38:43.900Z,22.9
2023-05-05T06:39:31.304Z,22.9
2023-05-05T06:40:18.717Z,22.9
2023-05-05T06:41:06.158Z,22.9
2023-05-05T06:41:53.567Z,22.9
2023-05-05T06:42:40.983Z,23.0
2023-05-05T06:43:28.422Z,22.9
2023-05-05T06:44:16.047Z,23.0
2023-05-05T06:45:03.763Z,23.0
2023-05-05T06:45:51.268Z,23.0
2023-05-05T06:46:38.749Z,23.0
2023-05-05T06:47:26.278Z,23.0
2023-05-05T06:48:13.731Z,23.1
2023-05-05T06:49:01.161Z,23.1
2023-05-05T06:49:48.631Z,23.1
2023-05-05T06:50:36.037Z,23.1
2023-05-05T06:51:23.473Z,23.1
2023-05-05T06:52:10.903Z,23.1
2023-05-05T06:52:58.453Z,23.1
2023-05-05T06:53:45.901Z,23.1
2023-05-05T06:54:33.316Z,23.1
2023-05-05T06:55:20.807Z,23.1
2023-05-05T06:56:08.232Z,23.1
2023-05-05T06:56:57.507Z,23.2
2023-05-05T06:57:46.245Z,23.2
2023-05-05T06:58:33.662Z,23.2
2023-05-05T06:59:21.098Z,23.2
2023-05-05T07:00:08.796Z,23.2
2023-05-05T07:00:56.365Z,23.2
2023-05-05T07:01:43.920Z,23.3
2023-05-05T07:02:31.798Z,23.3
2023-05-05T07:03:19.496Z,23.3
2023-05-05T07:04:07.248Z,23.3
2023-05-05T07:04:54.883Z,23.3
2023-05-05T07:05:42.309Z,23.3
2023-05-05T07:06:29.743Z,23.3
2023-05-05T07:07:17.190Z,23.3
2023-05-05T07:08:04.613Z,23.3
2023-05-05T07:08:52.288Z,23.3
2023-05-05T07:09:39.744Z,23.3
2023-05-05T07:10:27.221Z,23.3
2023-05-05T07:11:14.667Z,23.3
2023-05-05T07:12:02.080Z,23.3
2023-05-05T07:12:49.598Z,23.3
2023-05-05T07:13:37.060Z,23.3
2023-05-05T07:14:24.640Z,23.3
2023-05-05T07:15:23.365Z,23.3
2023-05-05T07:16:09.781Z,23.3
2023-05-05T07:16:57.415Z,23.3
2023-05-05T07:17:44.977Z,23.3
2023-05-05T07:18:32.603Z,23.3
2023-05-05T07:19:20.017Z,23.3
2023-05-05T07:20:07.695Z,23.3
2023-05-05T07:20:55.538Z,23.3
2023-05-05T07:21:43.055Z,23.3
2023-05-05T07:22:30.943Z,23.3
2023-05-05T07:23:18.364Z,23.3
2023-05-05T07:24:05.824Z,23.3
2023-05-05T07:24:53.453Z,23.3
2023-05-05T07:25:41.168Z,23.3
2023-05-05T07:26:28.613Z,23.3
2023-05-05T07:27:16.037Z,23.4
2023-05-05T07:28:04.958Z,23.4
2023-05-05T07:28:52.380Z,23.4
2023-05-05T07:29:40.370Z,23.4
2023-05-05T07:30:27.979Z,23.4
2023-05-05T07:31:15.480Z,23.4
2023-05-05T07:32:02.954Z,23.4
2023-05-05T07:32:50.467Z,23.4
2023-05-05T07:33:38.048Z,23.5
2023-05-05T07:34:25.471Z,23.5
2023-05-05T07:35:12.933Z,23.5
2023-05-05T07:36:00.373Z,23.5
2023-05-05T07:36:47.791Z,23.5
2023-05-05T07:37:35.250Z,23.5
2023-05-05T07:38:22.677Z,23.5
2023-05-05T07:39:10.088Z,23.5
2023-05-05T07:39:57.544Z,23.5
2023-05-05T07:40:44.992Z,23.6
2023-05-05T07:41:32.455Z,23.6
2023-05-05T07:42:19.888Z,23.6
2023-05-05T07:43:07.790Z,23.6
2023-05-05T07:43:55.524Z,23.6
2023-05-05T07:44:42.936Z,23.5
2023-05-05T07:45:30.374Z,23.5
2023-05-05T07:46:17.842Z,23.5
2023-05-05T07:47:05.352Z,23.5
2023-05-05T07:47:52.886Z,23.5
2023-05-05T07:48:40.347Z,23.5
2023-05-05T07:49:28.006Z,23.5
2023-05-05T07:50:15.497Z,23.4
2023-05-05T07:51:03.108Z,23.4
2023-05-05T07:51:50.608Z,23.4
2023-05-05T07:52:48.405Z,23.4
2023-05-05T07:53:35.457Z,23.4
2023-05-05T07:54:22.960Z,23.4
2023-05-05T07:55:10.871Z,23.4
2023-05-05T07:55:58.283Z,23.4
2023-05-05T07:56:45.712Z,23.4
2023-05-05T07:57:33.149Z,23.5
2023-05-05T07:58:20.599Z,23.5
2023-05-05T07:59:08.039Z,23.5
2023-05-05T07:59:55.523Z,23.5
2023-05-05T08:00:42.929Z,23.5
2023-05-05T08:01:30.335Z,23.6
2023-05-05T08:02:17.782Z,23.5
2023-05-05T08:03:05.406Z,23.6
2023-05-05T08:03:53.202Z,23.6
2023-05-05T08:04:40.672Z,23.6
2023-05-05T08:05:28.593Z,23.6
2023-05-05T08:06:16.009Z,23.6
2023-05-05T08:07:03.427Z,23.6
2023-05-05T08:07:50.862Z,23.6
2023-05-05T08:08:38.316Z,23.7
2023-05-05T08:09:25.744Z,23.7
2023-05-05T08:10:13.366Z,23.6
2023-05-05T08:11:00.873Z,23.6
2023-05-05T08:11:48.334Z,23.6
2023-05-05T08:12:35.792Z,23.6
2023-05-05T08:13:23.222Z,23.6
2023-05-05T08:14:10.672Z,23.6
2023-05-05T08:14:58.112Z,23.6
2023-05-05T08:15:45.657Z,23.6
2023-05-05T08:16:33.278Z,23.5
2023-05-05T08:17:20.807Z,23.5
2023-05-05T08:18:08.463Z,23.5
2023-05-05T08:18:55.874Z,23.5
2023-05-05T08:19:43.325Z,23.4
2023-05-05T08:20:30.702Z,23.4
2023-05-05T08:21:18.194Z,23.4
2023-05-05T08:22:05.593Z,23.3
2023-05-05T08:22:53.043Z,23.4
2023-05-05T08:23:40.456Z,23.3
2023-05-05T08:24:27.940Z,23.3
2023-05-05T08:25:15.687Z,23.2
2023-05-05T08:26:03.194Z,23.2
2023-05-05T08:26:50.623Z,23.1
2023-05-05T08:27:38.061Z,23.1
2023-05-05T08:28:25.523Z,23.1
2023-05-05T08:29:12.984Z,23.1
2023-05-05T08:30:00.400Z,23.1
2023-05-05T08:30:47.838Z,23.1
2023-05-05T08:31:35.321Z,23.0
2023-05-05T08:32:22.806Z,23.1
2023-05-05T08:33:10.416Z,23.1
2023-05-05T08:33:58.152Z,23.1
2023-05-05T08:34:45.605Z,23.1
2023-05-05T08:35:33.034Z,23.1
2023-05-05T08:36:20.535Z,23.1
2023-05-05T08:37:07.981Z,23.1
2023-05-05T08:37:58.181Z,23.0
2023-05-05T08:38:46.490Z,23.1
2023-05-05T08:39:33.958Z,23.0
2023-05-05T08:40:21.452Z,23.0
2023-05-05T08:41:08.871Z,23.0
2023-05-05T08:41:56.312Z,23.0
2023-05-05T08:42:43.737Z,23.0
2023-05-05T08:43:31.163Z,22.9
2023-05-05T08:44:18.581Z,22.9
2023-05-05T08:45:06.353Z,22.9
2023-05-05T08:45:53.935Z,22.9
2023-05-05T08:46:41.411Z,22.9
2023-05-05T08:47:29.012Z,22.9
2023-05-05T08:48:16.471Z,22.9
2023-05-05T08:49:03.939Z,22.9
2023-05-05T08:49:51.394Z,22.9
2023-05-05T08:50:38.820Z,22.9
2023-05-05T08:51:26.272Z,23.0
2023-05-05T08:52:13.754Z,23.0
2023-05-05T08:53:01.232Z,23.0
2023-05-05T08:53:48.765Z,23.0
2023-05-05T08:54:36.187Z,23.0
2023-05-05T08:55:23.636Z,23.0
2023-05-05T08:56:11.306Z,23.0
2023-05-05T08:56:58.762Z,22.9
2023-05-05T08:57:46.195Z,22.9
2023-05-05T08:58:33.604Z,22.9
2023-05-05T08:59:21.014Z,22.9
2023-05-05T09:00:08.456Z,22.9
2023-05-05T09:00:55.994Z,22.9
2023-05-05T09:01:43.446Z,22.8
2023-05-05T09:02:30.970Z,22.8
2023-05-05T09:03:18.494Z,22.8
2023-05-05T09:04:06.204Z,22.8
2023-05-05T09:04:53.639Z,22.8
2023-05-05T09:05:41.068Z,22.8
2023-05-05T09:06:28.485Z,22.7
2023-05-05T09:07:15.930Z,22.7
2023-05-05T09:08:03.388Z,22.7
2023-05-05T09:08:50.828Z,22.8
2023-05-05T09:09:38.272Z,22.7
2023-05-05T09:10:26.049Z,22.7
2023-05-05T09:11:13.483Z,22.7
2023-05-05T09:12:01.014Z,22.7
2023-05-05T09:12:48.465Z,22.7
2023-05-05T09:13:35.901Z,22.7
2023-05-05T09:14:23.335Z,22.7
2023-05-05T09:15:10.916Z,22.7
2023-05-05T09:15:58.520Z,22.7
2023-05-05T09:16:45.951Z,22.7
2023-05-05T09:17:33.921Z,22.7
2023-05-05T09:18:21.366Z,22.7
2023-05-05T09:19:08.813Z,22.6
2023-05-05T09:19:56.248Z,22.6
2023-05-05T09:20:43.680Z,22.6
2023-05-05T09:21:31.117Z,22.6
2023-05-05T09:22:18.552Z,22.6
2023-05-05T09:23:06.172Z,22.6
2023-05-05T09:23:53.580Z,22.6
2023-05-05T09:24:41.169Z,22.6
2023-05-05T09:25:28.673Z,22.6
2023-05-05T09:26:16.114Z,22.6
2023-05-05T09:27:03.533Z,22.6
2023-05-05T09:27:51.035Z,22.6
2023-05-05T09:28:38.486Z,22.6
2023-05-05T09:29:25.922Z,22.6
2023-05-05T09:30:13.381Z,22.6
2023-05-05T09:31:00.859Z,22.7
2023-05-05T09:31:48.345Z,22.7
2023-05-05T09:32:35.799Z,22.7
2023-05-05T09:33:23.268Z,22.7
2023-05-05T09:34:10.690Z,22.8
2023-05-05T09:34:58.114Z,22.8
2023-05-05T09:35:45.649Z,22.8
2023-05-05T09:36:33.092Z,22.7
2023-05-05T09:37:20.600Z,22.7
2023-05-05T09:38:08.033Z,22.7
2023-05-05T09:38:57.203Z,22.7
2023-05-05T09:39:46.175Z,22.7
2023-05-05T09:40:33.605Z,22.8
2023-05-05T09:41:21.046Z,22.8
2023-05-05T09:42:08.512Z,22.8
2023-05-05T09:42:55.938Z,22.8
2023-05-05T09:43:43.387Z,22.8
2023-05-05T09:44:30.858Z,22.8
2023-05-05T09:45:18.367Z,22.8
2023-05-05T09:46:05.986Z,22.8
2023-05-05T09:46:53.569Z,22.8
2023-05-05T09:47:41.196Z,22.8
2023-05-05T09:48:28.809Z,22.8
2023-05-05T09:49:16.271Z,22.8
2023-05-05T09:50:03.697Z,22.8
2023-05-05T09:50:51.149Z,22.8
2023-05-05T09:51:38.602Z,22.8
2023-05-05T09:52:26.156Z,22.8
2023-05-05T09:53:14.167Z,22.8
2023-05-05T09:54:01.609Z,22.8
2023-05-05T09:54:49.145Z,22.8
2023-05-05T09:55:36.672Z,22.8
2023-05-05T09:56:24.374Z,22.8
2023-05-05T09:57:11.948Z,22.8
2023-05-05T09:57:59.387Z,22.8
2023-05-05T09:58:46.873Z,22.8
2023-05-05T09:59:34.349Z,22.8
2023-05-05T10:00:21.860Z,22.8
2023-05-05T10:01:09.526Z,22.8
2023-05-05T10:01:57.048Z,22.8
2023-05-05T10:02:44.719Z,22.9
2023-05-05T10:03:32.166Z,22.8
2023-05-05T10:04:19.615Z,22.9
2023-05-05T10:05:07.129Z,22.8
2023-05-05T10:05:54.616Z,22.8
2023-05-05T10:06:42.200Z,22.8
2023-05-05T10:07:29.710Z,22.8
2023-05-05T10:08:17.328Z,22.8
2023-05-05T10:09:05.284Z,22.8
2023-05-05T10:09:52.996Z,22.8
2023-05-05T10:10:40.412Z,22.7
2023-05-05T10:11:28.358Z,22.8
2023-05-05T10:12:16.066Z,22.7
2023-05-05T10:13:03.705Z,22.7
2023-05-05T10:13:51.226Z,22.7
2023-05-05T10:14:38.702Z,22.7
2023-05-05T10:15:26.188Z,22.6
2023-05-05T10:16:13.667Z,22.6
2023-05-05T10:17:01.696Z,22.6
2023-05-05T10:18:39.619Z,22.6
2023-05-05T10:19:27.154Z,22.6
2023-05-05T10:26:59.608Z,22.6
2023-05-05T10:34:32.076Z,22.4
2023-05-05T10:42:04.524Z,22.3
2023-05-05T10:49:36.976Z,22.4
2023-05-05T10:55:09.650Z,22.5
2023-05-05T10:55:57.164Z,22.6
2023-05-05T10:56:44.599Z,22.6
2023-05-05T10:57:32.158Z,22.6
2023-05-05T10:58:19.577Z,22.6
2023-05-05T10:59:07.034Z,22.7
2023-05-05T10:59:54.499Z,22.7
2023-05-05T11:00:41.924Z,22.8
2023-05-05T11:01:29.400Z,22.8
2023-05-05T11:02:16.879Z,22.8
2023-05-05T11:03:04.412Z,22.8
2023-05-05T11:03:51.951Z,22.9
2023-05-05T11:04:39.605Z,22.9
2023-05-05T11:05:27.064Z,23.0
2023-05-05T11:06:14.503Z,23.0
2023-05-05T11:07:01.918Z,23.1
2023-05-05T11:07:49.343Z,23.0
2023-05-05T11:08:36.762Z,23.1
2023-05-05T11:09:24.178Z,23.1
2023-05-05T11:10:11.829Z,23.1
2023-05-05T11:10:59.360Z,23.1
2023-05-05T11:11:46.829Z,23.1
2023-05-05T11:12:36.017Z,23.2
2023-05-05T11:13:24.816Z,23.2
2023-05-05T11:14:12.336Z,23.2
2023-05-05T11:15:00.416Z,23.2
2023-05-05T11:15:47.850Z,23.2
2023-05-05T11:16:35.358Z,23.2
2023-05-05T11:17:22.888Z,23.2
2023-05-05T11:18:10.423Z,23.2
2023-05-05T11:18:57.929Z,23.2
2023-05-05T11:19:45.454Z,23.2
2023-05-05T11:20:33.082Z,23.2
2023-05-05T11:21:20.661Z,23.2
2023-05-05T11:22:08.226Z,23.3
2023-05-05T11:22:55.653Z,23.3
2023-05-05T11:23:43.120Z,23.3
2023-05-05T11:24:30.598Z,23.3
2023-05-05T11:25:18.122Z,23.3
2023-05-05T11:26:05.542Z,23.3
2023-05-05T11:26:53.131Z,23.3
2023-05-05T11:27:40.577Z,23.3
2023-05-05T11:28:28.021Z,23.3
2023-05-05T11:29:15.438Z,23.4
2023-05-05T11:30:02.849Z,23.4
2023-05-05T11:30:50.308Z,23.4
2023-05-05T11:31:38.152Z,23.4
2023-05-05T11:32:25.935Z,23.4
2023-05-05T11:33:13.615Z,23.4
2023-05-05T11:34:01.602Z,23.5
2023-05-05T11:34:48.996Z,23.4
2023-05-05T11:35:36.646Z,23.5
2023-05-05T11:36:24.059Z,23.5
2023-05-05T11:37:11.546Z,23.5
2023-05-05T11:37:58.968Z,23.5
2023-05-05T11:38:46.389Z,23.5
2023-05-05T11:39:33.841Z,23.5
2023-05-05T11:40:21.267Z,23.5
2023-05-05T11:41:08.714Z,23.6
2023-05-05T11:41:56.153Z,23.6
2023-05-05T11:42:43.581Z,23.6
2023-05-05T11:43:31.001Z,23.6
2023-05-05T11:44:18.452Z,23.6
2023-05-05T11:45:05.884Z,23.6
2023-05-05T11:45:53.430Z,23.6
2023-05-05T11:46:40.980Z,23.6
2023-05-05T11:47:28.521Z,23.6
2023-05-05T11:48:16.018Z,23.6
2023-05-05T11:49:03.539Z,23.6
2023-05-05T11:49:50.991Z,23.6
2023-05-05T11:50:38.401Z,23.7
2023-05-05T11:51:25.831Z,23.7
2023-05-05T11:52:13.260Z,23.7
2023-05-05T11:53:00.681Z,23.7
2023-05-05T11:53:48.110Z,23.7
2023-05-05T11:54:35.595Z,23.7
2023-05-05T11:55:23.019Z,23.7
2023-05-05T11:56:10.466Z,23.7
2023-05-05T11:56:58.059Z,23.8
2023-05-05T11:57:45.573Z,23.8
2023-05-05T11:58:33.195Z,23.8
2023-05-05T11:59:20.653Z,23.8
2023-05-05T12:00:08.333Z,23.7
2023-05-05T12:00:55.999Z,23.8
2023-05-05T12:01:43.463Z,23.8
2023-05-05T12:02:31.019Z,23.8
2023-05-05T12:03:18.584Z,23.8
2023-05-05T12:04:06.179Z,23.8
2023-05-05T12:04:54.729Z,23.8
2023-05-05T12:05:42.146Z,23.8
2023-05-05T12:06:29.826Z,23.8
2023-05-05T12:07:17.311Z,23.8
2023-05-05T12:08:04.764Z,23.8
2023-05-05T12:08:52.362Z,23.8
2023-05-05T12:09:40.073Z,23.9
2023-05-05T12:10:27.505Z,23.9
2023-05-05T12:11:15.111Z,23.9
2023-05-05T12:12:02.523Z,23.9
2023-05-05T12:12:49.977Z,23.9
2023-05-05T12:13:37.538Z,23.9
2023-05-05T12:14:25.423Z,23.9
2023-05-05T12:15:12.840Z,23.9
2023-05-05T12:16:00.331Z,23.9
2023-05-05T12:16:47.847Z,23.9
2023-05-05T12:17:35.393Z,23.9
2023-05-05T12:18:22.822Z,23.9
2023-05-05T12:19:10.256Z,23.9
2023-05-05T12:19:58.111Z,23.9
2023-05-05T12:20:45.705Z,23.9
2023-05-05T12:21:33.143Z,23.9
2023-05-05T12:22:20.584Z,23.9
2023-05-05T12:23:08.008Z,23.9
2023-05-05T12:23:55.943Z,23.9
2023-05-05T12:24:43.372Z,23.9
2023-05-05T12:25:30.843Z,23.9
2023-05-05T12:26:18.266Z,23.9
2023-05-05T12:27:05.721Z,23.9
2023-05-05T12:27:53.152Z,23.9
2023-05-05T12:28:40.552Z,23.9
2023-05-05T12:29:27.960Z,23.9
2023-05-05T12:30:15.411Z,23.9
2023-05-05T12:31:03.043Z,23.9
2023-05-05T12:31:50.529Z,23.9
2023-05-05T12:32:38.021Z,23.9
2023-05-05T12:33:25.450Z,23.9
2023-05-05T12:34:12.899Z,23.9
2023-05-05T12:35:00.761Z,24.0
2023-05-05T12:35:48.611Z,24.0
2023-05-05T12:36:36.219Z,24.0
2023-05-05T12:37:23.663Z,24.0
2023-05-05T12:38:11.114Z,24.0
2023-05-05T12:38:58.596Z,24.0
2023-05-05T12:39:46.113Z,24.0
2023-05-05T12:40:34.062Z,24.0
2023-05-05T12:41:21.521Z,24.0
2023-05-05T12:42:09.049Z,24.0
2023-05-05T12:42:56.569Z,24.0
2023-05-05T12:43:44.159Z,24.0
2023-05-05T12:44:31.763Z,24.0
2023-05-05T12:45:19.454Z,24.0
2023-05-05T12:46:06.981Z,24.0
2023-05-05T12:46:54.551Z,24.0
2023-05-05T12:47:42.067Z,24.0
2023-05-05T12:48:29.824Z,24.0
2023-05-05T12:49:17.244Z,24.0
2023-05-05T12:50:04.693Z,24.0
2023-05-05T12:50:52.118Z,24.0
2023-05-05T12:51:39.592Z,24.0
2023-05-05T12:52:27.013Z,24.0
2023-05-05T12:53:14.493Z,24.0
2023-05-05T12:54:01.912Z,24.0
2023-05-05T12:54:49.334Z,24.0
2023-05-05T12:55:36.825Z,24.0
2023-05-05T12:56:24.275Z,23.9
2023-05-05T12:57:11.716Z,23.9
2023-05-05T12:57:59.157Z,23.9
2023-05-05T12:58:46.585Z,23.9
2023-05-05T12:59:34.085Z,23.9
2023-05-05T13:00:22.118Z,23.9
2023-05-05T13:01:09.576Z,23.9
2023-05-05T13:01:57.923Z,23.9
2023-05-05T13:02:45.443Z,23.9
2023-05-05T13:03:32.996Z,23.8
2023-05-05T13:04:20.667Z,23.9
2023-05-05T13:05:08.682Z,23.9
2023-05-05T13:05:56.235Z,23.9
2023-05-05T13:06:43.990Z,23.9
2023-05-05T13:07:31.776Z,23.9
2023-05-05T13:08:19.189Z,23.9
2023-05-05T13:09:06.626Z,23.9
2023-05-05T13:09:54.788Z,23.9
2023-05-05T13:10:42.233Z,23.9
2023-05-05T13:11:30.057Z,23.9
2023-05-05T13:12:17.544Z,23.9
2023-05-05T13:13:05.420Z,23.9
2023-05-05T13:13:52.986Z,23.9
2023-05-05T13:14:40.464Z,23.9
2023-05-05T13:15:27.957Z,23.9
2023-05-05T13:16:15.533Z,23.9
2023-05-05T13:17:03.837Z,23.9
2023-05-05T13:17:51.355Z,23.9
2023-05-05T13:18:38.904Z,23.9
2023-05-05T13:19:26.565Z,23.9
2023-05-05T13:20:14.027Z,23.9
2023-05-05T13:21:01.566Z,23.9
2023-05-05T13:21:49.318Z,23.9
2023-05-05T13:22:36.852Z,23.9
2023-05-05T13:23:25.806Z,23.9
2023-05-05T13:24:26.159Z,23.9
2023-05-05T13:25:11.015Z,23.9
2023-05-05T13:25:58.706Z,23.9
2023-05-05T13:26:46.237Z,23.9
2023-05-05T13:27:33.657Z,23.9
2023-05-05T13:28:21.152Z,23.9
2023-05-05T13:29:08.578Z,23.9
2023-05-05T13:29:56.087Z,23.9
2023-05-05T13:30:43.580Z,23.9
2023-05-05T13:31:31.116Z,23.9
2023-05-05T13:32:18.748Z,23.9
2023-05-05T13:33:06.247Z,23.9
2023-05-05T13:33:53.984Z,23.9
2023-05-05T13:34:41.560Z,23.9
2023-05-05T13:35:29.033Z,23.9
2023-05-05T13:36:16.510Z,23.9
2023-05-05T13:37:03.931Z,23.9
2023-05-05T13:37:51.415Z,23.9
2023-05-05T13:38:38.838Z,23.9
2023-05-05T13:39:26.556Z,23.9
2023-05-05T13:40:14.418Z,23.9
2023-05-05T13:41:01.911Z,23.9
2023-05-05T13:41:49.346Z,23.9
2023-05-05T13:42:36.843Z,23.9
2023-05-05T13:43:24.524Z,23.9
2023-05-05T13:44:11.958Z,23.9
2023-05-05T13:44:59.493Z,23.9
2023-05-05T13:45:47.090Z,23.9
2023-05-05T13:46:34.573Z,23.9
2023-05-05T13:47:22.254Z,23.9
2023-05-05T13:48:10.059Z,23.9
2023-05-05T13:48:57.713Z,23.9
2023-05-05T13:49:45.210Z,23.9
2023-05-05T13:50:32.699Z,23.9
2023-05-05T13:51:20.116Z,23.9
2023-05-05T13:52:07.630Z,23.8
2023-05-05T13:52:55.054Z,23.8
2023-05-05T13:53:42.531Z,23.8
2023-05-05T13:54:29.941Z,23.8
2023-05-05T13:55:17.373Z,23.8
2023-05-05T13:56:04.976Z,23.8
2023-05-05T13:56:52.403Z,23.8
2023-05-05T13:57:39.846Z,23.8
2023-05-05T13:58:27.266Z,23.8
2023-05-05T13:59:14.671Z,23.8
2023-05-05T14:00:02.175Z,23.8
2023-05-05T14:00:49.683Z,23.7
2023-05-05T14:01:37.192Z,23.7
2023-05-05T14:02:24.955Z,23.7
2023-05-05T14:03:12.558Z,23.7
2023-05-05T14:04:01.452Z,23.7
2023-05-05T14:04:50.305Z,23.7
2023-05-05T14:05:37.803Z,23.7
2023-05-05T14:06:25.228Z,23.7
2023-05-05T14:07:12.733Z,23.6
2023-05-05T14:08:00.161Z,23.6
2023-05-05T14:08:47.568Z,23.6
2023-05-05T14:09:35.029Z,23.6
2023-05-05T14:10:22.845Z,23.6
2023-05-05T14:11:10.449Z,23.6
2023-05-05T14:11:57.915Z,23.6
2023-05-05T14:12:45.373Z,23.6
2023-05-05T14:13:32.814Z,23.6
2023-05-05T14:14:20.242Z,23.6
2023-05-05T14:15:07.916Z,23.7
2023-05-05T14:15:55.589Z,23.7
2023-05-05T14:16:43.372Z,23.7
2023-05-05T14:17:31.191Z,23.7
2023-05-05T14:18:18.687Z,23.7
2023-05-05T14:19:06.285Z,23.7
2023-05-05T14:19:53.778Z,23.7
2023-05-05T14:20:41.308Z,23.7
2023-05-05T14:21:28.755Z,23.7
2023-05-05T14:22:16.220Z,23.8
2023-05-05T14:23:03.634Z,23.8
2023-05-05T14:23:51.053Z,23.8
2023-05-05T14:24:38.454Z,23.8
2023-05-05T14:25:25.981Z,23.7
2023-05-05T14:26:13.930Z,23.8
2023-05-05T14:27:01.340Z,23.7
2023-05-05T14:27:48.823Z,23.7
2023-05-05T14:28:36.229Z,23.7